createdAt,value
2022-12-08T00:00:21.007Z,1003.16
2022-12-08T00:01:21.004Z,1003.17
2022-12-08T00:02:21.122Z,1003.20
2022-12-08T00:03:21.115Z,1003.18
2022-12-08T00:04:21.018Z,1003.21
2022-12-08T00:05:20.962Z,1003.15
2022-12-08T00:06:20.945Z,1003.14
2022-12-08T00:07:20.940Z,1003.14
2022-12-08T00:08:20.999Z,1003.10
2022-12-08T00:09:32.055Z,1003.18
2022-12-08T00:10:47.992Z,1003.13
2022-12-08T00:11:21.889Z,1003.08
2022-12-08T00:12:20.903Z,1003.08
2022-12-08T00:13:20.877Z,1003.11
2022-12-08T00:14:20.884Z,1003.08
2022-12-08T00:15:20.884Z,1003.06
2022-12-08T00:16:20.861Z,1003.07
2022-12-08T00:17:20.832Z,1003.08
2022-12-08T00:18:20.819Z,1003.12
2022-12-08T00:19:20.810Z,1003.13
2022-12-08T00:20:20.830Z,1003.07
2022-12-08T00:21:20.787Z,1003.11
2022-12-08T00:22:20.795Z,1003.10
2022-12-08T00:23:20.765Z,1003.12
2022-12-08T00:24:20.755Z,1003.11
2022-12-08T00:25:20.736Z,1003.06
2022-12-08T00:26:20.749Z,1003.05
2022-12-08T00:27:20.748Z,1003.06
2022-12-08T00:28:20.706Z,1003.04
2022-12-08T00:29:20.698Z,1003.05
2022-12-08T00:30:20.808Z,1003.07
2022-12-08T00:31:20.716Z,1003.07
2022-12-08T00:32:20.804Z,1003.08
2022-12-08T00:33:20.656Z,1003.05
2022-12-08T00:34:20.652Z,1002.97
2022-12-08T00:35:20.635Z,1002.94
2022-12-08T00:36:20.648Z,1002.91
2022-12-08T00:37:20.606Z,1002.95
2022-12-08T00:38:20.610Z,1002.92
2022-12-08T00:39:20.634Z,1002.90
2022-12-08T00:40:20.584Z,1002.96
2022-12-08T00:41:20.574Z,1002.95
2022-12-08T00:42:20.564Z,1002.89
2022-12-08T00:43:20.554Z,1002.95
2022-12-08T00:44:20.561Z,1002.95
2022-12-08T00:45:20.537Z,1002.94
2022-12-08T00:46:20.609Z,1002.96
2022-12-08T00:47:24.678Z,1002.97
2022-12-08T00:48:20.497Z,1002.96
2022-12-08T00:49:20.511Z,1002.91
2022-12-08T00:50:20.475Z,1002.87
2022-12-08T00:51:20.458Z,1002.90
2022-12-08T00:52:20.458Z,1002.90
2022-12-08T00:53:20.467Z,1002.88
2022-12-08T00:54:20.439Z,1002.88
2022-12-08T00:55:20.421Z,1002.87
2022-12-08T00:56:20.412Z,1002.83
2022-12-08T00:57:20.391Z,1002.88
2022-12-08T00:58:20.422Z,1002.85
2022-12-08T00:59:20.389Z,1002.84
2022-12-08T01:00:20.370Z,1002.81
2022-12-08T01:01:20.422Z,1002.80
2022-12-08T01:02:20.356Z,1002.79
2022-12-08T01:03:20.429Z,1002.80
2022-12-08T01:04:20.349Z,1002.81
2022-12-08T01:05:20.307Z,1002.80
2022-12-08T01:06:20.298Z,1002.83
2022-12-08T01:07:20.286Z,1002.81
2022-12-08T01:08:20.395Z,1002.83
2022-12-08T01:09:20.273Z,1002.85
2022-12-08T01:10:20.268Z,1002.88
2022-12-08T01:11:20.244Z,1002.84
2022-12-08T01:12:20.238Z,1002.82
2022-12-08T01:13:20.221Z,1002.82
2022-12-08T01:14:20.234Z,1002.84
2022-12-08T01:15:20.200Z,1002.87
2022-12-08T01:16:20.279Z,1002.82
2022-12-08T01:17:20.187Z,1002.86
2022-12-08T01:18:20.189Z,1002.85
2022-12-08T01:19:20.160Z,1002.83
2022-12-08T01:20:20.183Z,1002.82
2022-12-08T01:21:20.142Z,1002.87
2022-12-08T01:22:20.127Z,1002.84
2022-12-08T01:23:20.112Z,1002.84
2022-12-08T01:24:20.111Z,1002.77
2022-12-08T01:25:20.097Z,1002.81
2022-12-08T01:26:20.105Z,1002.79
2022-12-08T01:27:20.070Z,1002.81
2022-12-08T01:28:20.075Z,1002.81
2022-12-08T01:29:20.066Z,1002.75
2022-12-08T01:30:20.044Z,1002.74
2022-12-08T01:31:20.193Z,1002.77
2022-12-08T01:32:20.038Z,1002.73
2022-12-08T01:33:20.006Z,1002.76
2022-12-08T01:34:20.014Z,1002.70
2022-12-08T01:35:19.992Z,1002.69
2022-12-08T01:36:19.971Z,1002.70
2022-12-08T01:37:19.974Z,1002.69
2022-12-08T01:38:19.950Z,1002.67
2022-12-08T01:39:19.940Z,1002.65
2022-12-08T01:40:19.930Z,1002.69
2022-12-08T01:41:19.926Z,1002.67
2022-12-08T01:42:19.953Z,1002.65
2022-12-08T01:43:19.932Z,1002.65
2022-12-08T01:44:19.885Z,1002.64
2022-12-08T01:45:19.887Z,1002.60
2022-12-08T01:46:19.919Z,1002.55
2022-12-08T01:47:19.873Z,1002.51
2022-12-08T01:48:19.888Z,1002.52
2022-12-08T01:49:19.838Z,1002.51
2022-12-08T01:50:19.859Z,1002.45
2022-12-08T01:51:19.818Z,1002.46
2022-12-08T01:52:19.817Z,1002.43
2022-12-08T01:53:19.815Z,1002.43
2022-12-08T01:54:19.781Z,1002.37
2022-12-08T01:55:19.791Z,1002.43
2022-12-08T01:56:19.768Z,1002.46
2022-12-08T01:57:19.766Z,1002.45
2022-12-08T01:58:19.736Z,1002.41
2022-12-08T01:59:19.726Z,1002.36
2022-12-08T02:00:19.711Z,1002.36
2022-12-08T02:01:19.718Z,1002.35
2022-12-08T02:02:19.771Z,1002.38
2022-12-08T02:03:19.699Z,1002.36
2022-12-08T02:04:19.681Z,1002.34
2022-12-08T02:05:19.669Z,1002.36
2022-12-08T02:06:19.676Z,1002.34
2022-12-08T02:07:19.640Z,1002.33
2022-12-08T02:08:19.743Z,1002.35
2022-12-08T02:09:19.633Z,1002.21
2022-12-08T02:10:19.610Z,1002.23
2022-12-08T02:11:19.603Z,1002.25
2022-12-08T02:12:19.597Z,1002.21
2022-12-08T02:13:19.597Z,1002.16
2022-12-08T02:14:19.570Z,1002.16
2022-12-08T02:15:19.553Z,1002.19
2022-12-08T02:16:19.589Z,1002.14
2022-12-08T02:17:19.599Z,1002.18
2022-12-08T02:18:19.544Z,1002.09
2022-12-08T02:19:30.791Z,1002.21
2022-12-08T02:20:20.519Z,1002.18
2022-12-08T02:21:19.502Z,1002.19
2022-12-08T02:22:19.506Z,1002.17
2022-12-08T02:23:19.475Z,1002.20
2022-12-08T02:24:19.456Z,1002.19
2022-12-08T02:25:19.486Z,1002.15
2022-12-08T02:26:19.439Z,1002.14
2022-12-08T02:27:19.432Z,1002.13
2022-12-08T02:28:19.414Z,1002.14
2022-12-08T02:29:19.415Z,1002.13
2022-12-08T02:30:19.394Z,1002.07
2022-12-08T02:31:19.448Z,1002.06
2022-12-08T02:32:19.372Z,1002.08
2022-12-08T02:33:19.371Z,1002.07
2022-12-08T02:34:19.361Z,1002.07
2022-12-08T02:35:19.350Z,1002.06
2022-12-08T02:36:19.363Z,1002.00
2022-12-08T02:37:19.316Z,1002.03
2022-12-08T02:38:19.336Z,1002.01
2022-12-08T02:39:19.305Z,1002.03
2022-12-08T02:40:19.283Z,1002.00
2022-12-08T02:41:19.271Z,1001.95
2022-12-08T02:42:19.292Z,1001.91
2022-12-08T02:43:19.262Z,1001.96
2022-12-08T02:44:19.262Z,1001.91
2022-12-08T02:45:19.232Z,1001.97
2022-12-08T02:46:19.316Z,1001.90
2022-12-08T02:47:19.208Z,1001.92
2022-12-08T02:48:19.197Z,1001.91
2022-12-08T02:49:19.199Z,1001.91
2022-12-08T02:50:19.204Z,1001.87
2022-12-08T02:51:19.166Z,1001.90
2022-12-08T02:52:19.176Z,1001.82
2022-12-08T02:53:19.166Z,1001.82
2022-12-08T02:54:19.152Z,1001.78
2022-12-08T02:55:19.135Z,1001.75
2022-12-08T02:56:19.116Z,1001.75
2022-12-08T02:57:19.122Z,1001.77
2022-12-08T02:58:19.095Z,1001.75
2022-12-08T02:59:19.090Z,1001.73
2022-12-08T03:00:19.076Z,1001.71
2022-12-08T03:01:19.138Z,1001.72
2022-12-08T03:02:19.130Z,1001.68
2022-12-08T03:03:19.102Z,1001.68
2022-12-08T03:04:19.041Z,1001.64
2022-12-08T03:05:19.026Z,1001.63
2022-12-08T03:06:19.015Z,1001.59
2022-12-08T03:07:19.009Z,1001.62
2022-12-08T03:08:19.098Z,1001.57
2022-12-08T03:09:19.005Z,1001.59
2022-12-08T03:10:19.006Z,1001.61
2022-12-08T03:11:18.964Z,1001.55
2022-12-08T03:12:18.950Z,1001.57
2022-12-08T03:13:18.960Z,1001.54
2022-12-08T03:14:18.945Z,1001.59
2022-12-08T03:15:18.954Z,1001.57
2022-12-08T03:16:19.015Z,1001.53
2022-12-08T03:17:18.892Z,1001.47
2022-12-08T03:18:18.898Z,1001.51
2022-12-08T03:19:18.875Z,1001.47
2022-12-08T03:20:18.863Z,1001.52
2022-12-08T03:21:18.863Z,1001.51
2022-12-08T03:22:18.840Z,1001.51
2022-12-08T03:23:18.838Z,1001.51
2022-12-08T03:24:18.822Z,1001.50
2022-12-08T03:25:18.810Z,1001.51
2022-12-08T03:26:18.828Z,1001.49
2022-12-08T03:27:18.805Z,1001.48
2022-12-08T03:28:18.773Z,1001.46
2022-12-08T03:29:18.765Z,1001.48
2022-12-08T03:30:18.759Z,1001.49
2022-12-08T03:31:18.789Z,1001.46
2022-12-08T03:32:18.770Z,1001.47
2022-12-08T03:33:18.731Z,1001.42
2022-12-08T03:34:18.726Z,1001.38
2022-12-08T03:35:18.707Z,1001.40
2022-12-08T03:36:18.703Z,1001.41
2022-12-08T03:37:18.694Z,1001.41
2022-12-08T03:38:18.692Z,1001.37
2022-12-08T03:39:18.660Z,1001.36
2022-12-08T03:40:18.657Z,1001.37
2022-12-08T03:41:18.652Z,1001.33
2022-12-08T03:42:18.654Z,1001.27
2022-12-08T03:43:18.653Z,1001.32
2022-12-08T03:44:18.616Z,1001.26
2022-12-08T03:45:18.606Z,1001.27
2022-12-08T03:46:18.694Z,1001.21
2022-12-08T03:47:18.586Z,1001.26
2022-12-08T03:48:18.570Z,1001.21
2022-12-08T03:49:18.580Z,1001.21
2022-12-08T03:50:18.557Z,1001.18
2022-12-08T03:51:18.544Z,1001.17
2022-12-08T03:52:18.535Z,1001.17
2022-12-08T03:53:18.535Z,1001.15
2022-12-08T03:54:18.513Z,1001.18
2022-12-08T03:55:18.516Z,1001.17
2022-12-08T03:56:18.516Z,1001.14
2022-12-08T03:57:18.483Z,1001.13
2022-12-08T03:58:18.524Z,1001.07
2022-12-08T03:59:18.464Z,1001.07
2022-12-08T04:00:18.462Z,1001.08
2022-12-08T04:01:18.551Z,1001.09
2022-12-08T04:02:18.549Z,1001.09
2022-12-08T04:03:18.521Z,1001.10
2022-12-08T04:04:18.402Z,1001.11
2022-12-08T04:05:18.631Z,1001.13
2022-12-08T04:06:18.390Z,1001.10
2022-12-08T04:07:18.407Z,1001.06
2022-12-08T04:08:18.402Z,1001.03
2022-12-08T04:09:18.348Z,1001.05
2022-12-08T04:10:18.352Z,1000.99
2022-12-08T04:11:18.330Z,1001.02
2022-12-08T04:12:18.316Z,1000.96
2022-12-08T04:13:18.318Z,1001.02
2022-12-08T04:14:18.315Z,1000.96
2022-12-08T04:15:18.312Z,1000.98
2022-12-08T04:16:18.381Z,1000.92
2022-12-08T04:17:18.264Z,1000.94
2022-12-08T04:18:18.263Z,1000.89
2022-12-08T04:19:18.253Z,1000.90
2022-12-08T04:20:18.241Z,1000.88
2022-12-08T04:21:18.244Z,1000.88
2022-12-08T04:22:18.214Z,1000.91
2022-12-08T04:23:18.203Z,1000.86
2022-12-08T04:24:18.191Z,1000.88
2022-12-08T04:25:18.181Z,1000.83
2022-12-08T04:26:18.181Z,1000.84
2022-12-08T04:27:18.180Z,1000.81
2022-12-08T04:28:18.155Z,1000.79
2022-12-08T04:29:18.151Z,1000.78
2022-12-08T04:30:18.159Z,1000.73
2022-12-08T04:31:18.220Z,1000.78
2022-12-08T04:32:18.116Z,1000.76
2022-12-08T04:33:18.109Z,1000.79
2022-12-08T04:34:18.084Z,1000.73
2022-12-08T04:35:18.082Z,1000.74
2022-12-08T04:36:18.074Z,1000.78
2022-12-08T04:37:18.058Z,1000.73
2022-12-08T04:38:18.059Z,1000.75
2022-12-08T04:39:18.043Z,1000.79
2022-12-08T04:40:18.028Z,1000.77
2022-12-08T04:41:18.020Z,1000.80
2022-12-08T04:42:18.006Z,1000.79
2022-12-08T04:43:18.003Z,1000.78
2022-12-08T04:44:18.010Z,1000.77
2022-12-08T04:45:17.970Z,1000.76
2022-12-08T04:46:18.013Z,1000.78
2022-12-08T04:47:17.998Z,1000.80
2022-12-08T04:48:17.942Z,1000.75
2022-12-08T04:49:17.945Z,1000.75
2022-12-08T04:50:17.926Z,1000.71
2022-12-08T04:51:17.927Z,1000.73
2022-12-08T04:52:17.905Z,1000.76
2022-12-08T04:53:17.894Z,1000.75
2022-12-08T04:54:17.881Z,1000.77
2022-12-08T04:55:17.885Z,1000.75
2022-12-08T04:56:17.855Z,1000.75
2022-12-08T04:57:17.842Z,1000.72
2022-12-08T04:58:17.836Z,1000.72
2022-12-08T04:59:17.825Z,1000.72
2022-12-08T05:00:17.811Z,1000.75
2022-12-08T05:01:17.918Z,1000.72
2022-12-08T05:02:18.028Z,1000.70
2022-12-08T05:03:17.793Z,1000.71
2022-12-08T05:04:17.771Z,1000.76
2022-12-08T05:05:17.760Z,1000.73
2022-12-08T05:06:17.745Z,1000.70
2022-12-08T05:07:17.749Z,1000.72
2022-12-08T05:08:17.775Z,1000.71
2022-12-08T05:09:17.721Z,1000.68
2022-12-08T05:10:17.716Z,1000.67
2022-12-08T05:11:17.725Z,1000.65
2022-12-08T05:12:17.690Z,1000.63
2022-12-08T05:13:17.687Z,1000.64
2022-12-08T05:14:17.658Z,1000.59
2022-12-08T05:15:17.645Z,1000.63
2022-12-08T05:16:17.747Z,1000.61
2022-12-08T05:17:17.645Z,1000.59
2022-12-08T05:18:17.637Z,1000.60
2022-12-08T05:19:17.604Z,1000.58
2022-12-08T05:20:17.602Z,1000.58
2022-12-08T05:21:17.590Z,1000.59
2022-12-08T05:22:17.587Z,1000.60
2022-12-08T05:23:17.595Z,1000.55
2022-12-08T05:24:17.556Z,1000.57
2022-12-08T05:25:17.549Z,1000.57
2022-12-08T05:26:17.548Z,1000.53
2022-12-08T05:27:17.521Z,1000.54
2022-12-08T05:28:40.933Z,1000.54
2022-12-08T05:29:18.517Z,1000.57
2022-12-08T05:30:17.486Z,1000.58
2022-12-08T05:31:17.527Z,1000.57
2022-12-08T05:32:17.470Z,1000.57
2022-12-08T05:33:17.468Z,1000.62
2022-12-08T05:34:17.467Z,1000.57
2022-12-08T05:35:17.442Z,1000.57
2022-12-08T05:36:17.422Z,1000.54
2022-12-08T05:37:17.411Z,1000.56
2022-12-08T05:38:17.423Z,1000.51
2022-12-08T05:39:17.395Z,1000.56
2022-12-08T05:40:17.388Z,1000.49
2022-12-08T05:41:17.376Z,1000.47
2022-12-08T05:42:21.766Z,1000.53
2022-12-08T05:43:18.357Z,1000.53
2022-12-08T05:44:17.355Z,1000.50
2022-12-08T05:45:17.331Z,1000.56
2022-12-08T05:46:17.402Z,1000.54
2022-12-08T05:47:17.309Z,1000.52
2022-12-08T05:48:17.295Z,1000.52
2022-12-08T05:49:17.283Z,1000.53
2022-12-08T05:50:17.320Z,1000.53
2022-12-08T05:51:17.261Z,1000.51
2022-12-08T05:52:17.260Z,1000.52
2022-12-08T05:53:17.241Z,1000.50
2022-12-08T05:54:17.237Z,1000.50
2022-12-08T05:55:17.221Z,1000.50
2022-12-08T05:56:17.233Z,1000.46
2022-12-08T05:57:17.218Z,1000.48
2022-12-08T05:58:17.196Z,1000.47
2022-12-08T05:59:17.185Z,1000.46
2022-12-08T06:00:17.174Z,1000.46
2022-12-08T06:01:17.183Z,1000.49
2022-12-08T06:02:17.337Z,1000.48
2022-12-08T06:03:17.247Z,1000.51
2022-12-08T06:04:17.128Z,1000.47
2022-12-08T06:05:17.141Z,1000.50
2022-12-08T06:06:17.117Z,1000.48
2022-12-08T06:07:17.120Z,1000.47
2022-12-08T06:08:17.203Z,1000.45
2022-12-08T06:09:17.067Z,1000.46
2022-12-08T06:10:17.069Z,1000.45
2022-12-08T06:11:17.078Z,1000.45
2022-12-08T06:12:17.038Z,1000.45
2022-12-08T06:13:17.034Z,1000.46
2022-12-08T06:14:17.027Z,1000.43
2022-12-08T06:15:17.010Z,1000.41
2022-12-08T06:16:17.081Z,1000.37
2022-12-08T06:17:16.996Z,1000.47
2022-12-08T06:18:16.969Z,1000.43
2022-12-08T06:19:16.957Z,1000.45
2022-12-08T06:20:16.974Z,1000.45
2022-12-08T06:21:16.975Z,1000.45
2022-12-08T06:22:17.064Z,1000.44
2022-12-08T06:23:16.919Z,1000.43
2022-12-08T06:24:16.914Z,1000.39
2022-12-08T06:25:16.897Z,1000.42
2022-12-08T06:26:16.894Z,1000.41
2022-12-08T06:27:16.901Z,1000.41
2022-12-08T06:28:16.867Z,1000.41
2022-12-08T06:29:16.854Z,1000.43
2022-12-08T06:30:16.864Z,1000.52
2022-12-08T06:31:17.047Z,1000.46
2022-12-08T06:32:16.856Z,1000.44
2022-12-08T06:33:16.813Z,1000.44
2022-12-08T06:34:16.825Z,1000.44
2022-12-08T06:35:16.801Z,1000.47
2022-12-08T06:36:16.778Z,1000.47
2022-12-08T06:37:16.766Z,1000.47
2022-12-08T06:38:16.850Z,1000.46
2022-12-08T06:39:16.750Z,1000.53
2022-12-08T06:40:16.760Z,1000.46
2022-12-08T06:41:16.729Z,1000.49
2022-12-08T06:42:16.716Z,1000.46
2022-12-08T06:43:16.711Z,1000.46
2022-12-08T06:44:16.693Z,1000.41
2022-12-08T06:45:16.699Z,1000.44
2022-12-08T06:46:16.795Z,1000.41
2022-12-08T06:47:16.662Z,1000.43
2022-12-08T06:48:16.674Z,1000.41
2022-12-08T06:49:16.636Z,1000.41
2022-12-08T06:50:16.632Z,1000.44
2022-12-08T06:51:16.658Z,1000.44
2022-12-08T06:52:16.606Z,1000.49
2022-12-08T06:53:16.593Z,1000.47
2022-12-08T06:54:16.605Z,1000.48
2022-12-08T06:55:35.370Z,1000.52
2022-12-08T06:56:17.581Z,1000.51
2022-12-08T06:57:16.561Z,1000.51
2022-12-08T06:58:16.540Z,1000.48
2022-12-08T06:59:16.531Z,1000.50
2022-12-08T07:00:16.524Z,1000.52
2022-12-08T07:01:16.574Z,1000.50
2022-12-08T07:02:16.552Z,1000.48
2022-12-08T07:03:16.487Z,1000.53
2022-12-08T07:04:16.484Z,1000.53
2022-12-08T07:05:16.469Z,1000.55
2022-12-08T07:06:16.454Z,1000.57
2022-12-08T07:07:16.461Z,1000.54
2022-12-08T07:08:16.521Z,1000.58
2022-12-08T07:09:16.423Z,1000.62
2022-12-08T07:10:16.448Z,1000.59
2022-12-08T07:11:21.131Z,1000.61
2022-12-08T07:12:17.413Z,1000.65
2022-12-08T07:13:16.391Z,1000.62
2022-12-08T07:14:16.373Z,1000.64
2022-12-08T07:15:16.356Z,1000.64
2022-12-08T07:16:16.480Z,1000.65
2022-12-08T07:17:16.367Z,1000.64
2022-12-08T07:18:16.352Z,1000.65
2022-12-08T07:19:16.317Z,1000.67
2022-12-08T07:20:16.310Z,1000.66
2022-12-08T07:21:16.305Z,1000.65
2022-12-08T07:22:16.282Z,1000.67
2022-12-08T07:23:16.286Z,1000.68
2022-12-08T07:24:16.279Z,1000.63
2022-12-08T07:25:16.281Z,1000.66
2022-12-08T07:26:16.262Z,1000.66
2022-12-08T07:27:16.243Z,1000.65
2022-12-08T07:28:16.224Z,1000.68
2022-12-08T07:29:19.308Z,1000.64
2022-12-08T07:30:16.199Z,1000.66
2022-12-08T07:31:16.242Z,1000.68
2022-12-08T07:32:16.173Z,1000.62
2022-12-08T07:33:16.166Z,1000.64
2022-12-08T07:34:16.164Z,1000.62
2022-12-08T07:35:16.150Z,1000.63
2022-12-08T07:36:16.131Z,1000.65
2022-12-08T07:37:16.157Z,1000.67
2022-12-08T07:38:16.110Z,1000.58
2022-12-08T07:39:16.119Z,1000.56
2022-12-08T07:40:16.638Z,1000.54
2022-12-08T07:41:16.098Z,1000.56
2022-12-08T07:42:16.110Z,1000.63
2022-12-08T07:43:16.095Z,1000.60
2022-12-08T07:44:16.067Z,1000.58
2022-12-08T07:45:16.067Z,1000.61
2022-12-08T07:46:16.186Z,1000.60
2022-12-08T07:47:16.027Z,1000.58
2022-12-08T07:48:16.044Z,1000.57
2022-12-08T07:49:16.085Z,1000.57
2022-12-08T07:50:15.986Z,1000.60
2022-12-08T07:51:15.971Z,1000.59
2022-12-08T07:52:15.990Z,1000.56
2022-12-08T07:53:15.953Z,1000.53
2022-12-08T07:54:15.937Z,1000.60
2022-12-08T07:55:15.953Z,1000.55
2022-12-08T07:56:15.918Z,1000.52
2022-12-08T07:57:15.908Z,1000.56
2022-12-08T07:58:16.166Z,1000.56
2022-12-08T07:59:15.892Z,1000.61
2022-12-08T08:00:15.877Z,1000.60
2022-12-08T08:01:16.091Z,1000.60
2022-12-08T08:02:24.210Z,1000.59
2022-12-08T08:03:15.926Z,1000.59
2022-12-08T08:04:15.916Z,1000.62
2022-12-08T08:05:15.827Z,1000.63
2022-12-08T08:06:15.812Z,1000.61
2022-12-08T08:07:15.806Z,1000.63
2022-12-08T08:08:15.880Z,1000.63
2022-12-08T08:09:15.775Z,1000.67
2022-12-08T08:10:15.786Z,1000.68
2022-12-08T08:11:20.954Z,1000.65
2022-12-08T08:12:32.885Z,1000.70
2022-12-08T08:13:16.734Z,1000.71
2022-12-08T08:14:15.752Z,1000.69
2022-12-08T08:15:15.716Z,1000.71
2022-12-08T08:16:15.877Z,1000.76
2022-12-08T08:17:15.825Z,1000.73
2022-12-08T08:18:15.675Z,1000.78
2022-12-08T08:19:15.689Z,1000.71
2022-12-08T08:20:15.661Z,1000.77
2022-12-08T08:21:43.749Z,1000.75
2022-12-08T08:22:16.641Z,1000.80
2022-12-08T08:23:15.621Z,1000.77
2022-12-08T08:24:15.644Z,1000.81
2022-12-08T08:25:15.604Z,1000.73
2022-12-08T08:26:15.613Z,1000.74
2022-12-08T08:27:15.602Z,1000.76
2022-12-08T08:28:15.577Z,1000.68
2022-12-08T08:29:15.565Z,1000.73
2022-12-08T08:30:20.442Z,1000.71
2022-12-08T08:31:16.657Z,1000.74
2022-12-08T08:32:15.567Z,1000.69
2022-12-08T08:33:15.551Z,1000.70
2022-12-08T08:34:15.508Z,1000.65
2022-12-08T08:35:15.498Z,1000.65
2022-12-08T08:36:15.482Z,1000.62
2022-12-08T08:37:15.590Z,1000.67
2022-12-08T08:38:15.481Z,1000.67
2022-12-08T08:39:15.466Z,1000.65
2022-12-08T08:40:15.448Z,1000.69
2022-12-08T08:41:15.439Z,1000.74
2022-12-08T08:42:15.439Z,1000.72
2022-12-08T08:43:15.418Z,1000.73
2022-12-08T08:44:15.421Z,1000.67
2022-12-08T08:45:15.414Z,1000.71
2022-12-08T08:46:15.462Z,1000.76
2022-12-08T08:47:15.366Z,1000.70
2022-12-08T08:48:15.362Z,1000.78
2022-12-08T08:49:15.359Z,1000.74
2022-12-08T08:50:15.345Z,1000.78
2022-12-08T08:51:15.354Z,1000.75
2022-12-08T08:52:15.317Z,1000.72
2022-12-08T08:53:15.309Z,1000.73
2022-12-08T08:54:15.292Z,1000.77
2022-12-08T08:55:15.319Z,1000.68
2022-12-08T08:56:15.270Z,1000.68
2022-12-08T08:57:15.256Z,1000.75
2022-12-08T08:58:15.255Z,1000.71
2022-12-08T08:59:15.238Z,1000.66
2022-12-08T09:00:15.255Z,1000.68
2022-12-08T09:01:15.322Z,1000.68
2022-12-08T09:02:15.273Z,1000.71
2022-12-08T09:03:16.041Z,1000.66
2022-12-08T09:04:15.269Z,1000.62
2022-12-08T09:05:15.202Z,1000.63
2022-12-08T09:06:15.277Z,1000.66
2022-12-08T09:07:15.151Z,1000.66
2022-12-08T09:08:15.300Z,1000.66
2022-12-08T09:09:15.133Z,1000.58
2022-12-08T09:10:15.129Z,1000.59
2022-12-08T09:11:15.145Z,1000.58
2022-12-08T09:12:15.105Z,1000.62
2022-12-08T09:13:15.109Z,1000.56
2022-12-08T09:14:15.077Z,1000.52
2022-12-08T09:15:15.064Z,1000.51
2022-12-08T09:16:15.245Z,1000.52
2022-12-08T09:17:15.050Z,1000.47
2022-12-08T09:18:15.063Z,1000.50
2022-12-08T09:19:15.026Z,1000.52
2022-12-08T09:20:15.029Z,1000.57
2022-12-08T09:21:15.014Z,1000.61
2022-12-08T09:22:15.021Z,1000.48
2022-12-08T09:23:14.977Z,1000.47
2022-12-08T09:24:14.972Z,1000.50
2022-12-08T09:25:14.993Z,1000.45
2022-12-08T09:26:14.949Z,1000.47
2022-12-08T09:27:14.934Z,1000.53
2022-12-08T09:28:15.182Z,1000.42
2022-12-08T09:29:14.923Z,1000.42
2022-12-08T09:30:14.923Z,1000.47
2022-12-08T09:31:14.985Z,1000.44
2022-12-08T09:32:14.898Z,1000.37
2022-12-08T09:33:14.934Z,1000.40
2022-12-08T09:34:14.904Z,1000.38
2022-12-08T09:35:14.862Z,1000.34
2022-12-08T09:36:14.849Z,1000.36
2022-12-08T09:37:14.833Z,1000.39
2022-12-08T09:38:14.819Z,1000.35
2022-12-08T09:39:14.826Z,1000.31
2022-12-08T09:40:14.826Z,1000.31
2022-12-08T09:41:14.790Z,1000.27
2022-12-08T09:42:14.789Z,1000.30
2022-12-08T09:43:14.770Z,1000.38
2022-12-08T09:44:14.777Z,1000.28
2022-12-08T09:45:14.782Z,1000.33
2022-12-08T09:46:14.822Z,1000.29
2022-12-08T09:47:14.740Z,1000.32
2022-12-08T09:48:14.724Z,1000.29
2022-12-08T09:49:14.714Z,1000.28
2022-12-08T09:50:14.722Z,1000.31
2022-12-08T09:51:14.693Z,1000.30
2022-12-08T09:52:14.673Z,1000.31
2022-12-08T09:53:14.661Z,1000.32
2022-12-08T09:54:14.664Z,1000.25
2022-12-08T09:55:14.653Z,1000.28
2022-12-08T09:56:14.629Z,1000.28
2022-12-08T09:57:14.618Z,1000.29
2022-12-08T09:58:14.627Z,1000.27
2022-12-08T09:59:14.604Z,1000.30
2022-12-08T10:00:14.620Z,1000.26
2022-12-08T10:01:14.578Z,1000.27
2022-12-08T10:02:14.642Z,1000.24
2022-12-08T10:03:16.800Z,1000.30
2022-12-08T10:04:14.571Z,1000.18
2022-12-08T10:05:14.606Z,1000.21
2022-12-08T10:06:14.562Z,1000.29
2022-12-08T10:07:14.543Z,1000.18
2022-12-08T10:08:14.544Z,1000.19
2022-12-08T10:09:18.300Z,1000.19
2022-12-08T10:10:14.501Z,1000.27
2022-12-08T10:11:14.475Z,1000.26
2022-12-08T10:12:14.482Z,1000.21
2022-12-08T10:13:14.447Z,1000.18
2022-12-08T10:14:14.456Z,1000.28
2022-12-08T10:15:14.426Z,1000.24
2022-12-08T10:16:21.989Z,1000.18
2022-12-08T10:17:15.482Z,1000.23
2022-12-08T10:18:14.401Z,1000.28
2022-12-08T10:19:14.428Z,1000.22
2022-12-08T10:20:14.388Z,1000.17
2022-12-08T10:21:14.382Z,1000.16
2022-12-08T10:22:14.380Z,1000.22
2022-12-08T10:23:14.352Z,1000.18
2022-12-08T10:24:14.338Z,1000.21
2022-12-08T10:25:14.324Z,1000.20
2022-12-08T10:26:14.327Z,1000.20
2022-12-08T10:27:14.296Z,1000.11
2022-12-08T10:28:14.287Z,1000.14
2022-12-08T10:29:14.285Z,1000.09
2022-12-08T10:30:14.295Z,1000.10
2022-12-08T10:31:14.308Z,1000.08
2022-12-08T10:32:14.259Z,1000.10
2022-12-08T10:33:14.240Z,1000.06
2022-12-08T10:34:14.261Z,1000.05
2022-12-08T10:35:14.210Z,1000.02
2022-12-08T10:36:14.255Z,1000.00
2022-12-08T10:37:14.203Z,1000.05
2022-12-08T10:38:14.220Z,999.93
2022-12-08T10:39:14.180Z,999.97
2022-12-08T10:40:14.199Z,1000.02
2022-12-08T10:41:14.202Z,999.96
2022-12-08T10:42:14.192Z,999.94
2022-12-08T10:43:14.170Z,999.96
2022-12-08T10:44:14.132Z,1000.00
2022-12-08T10:45:14.147Z,999.94
2022-12-08T10:46:14.204Z,999.94
2022-12-08T10:47:14.232Z,999.94
2022-12-08T10:48:14.085Z,999.93
2022-12-08T10:49:14.115Z,999.94
2022-12-08T10:50:14.056Z,999.97
2022-12-08T10:51:14.072Z,999.88
2022-12-08T10:52:14.064Z,999.93
2022-12-08T10:53:14.025Z,999.96
2022-12-08T10:54:19.023Z,999.99
2022-12-08T10:55:15.015Z,999.92
2022-12-08T10:56:14.000Z,999.98
2022-12-08T10:57:13.987Z,999.99
2022-12-08T10:58:13.997Z,999.97
2022-12-08T10:59:13.969Z,999.99
2022-12-08T11:00:14.583Z,999.87
2022-12-08T11:01:14.077Z,999.94
2022-12-08T11:02:14.133Z,999.94
2022-12-08T11:03:13.945Z,999.84
2022-12-08T11:04:13.917Z,999.90
2022-12-08T11:05:13.905Z,999.94
2022-12-08T11:06:13.899Z,999.90
2022-12-08T11:07:13.885Z,999.89
2022-12-08T11:08:14.013Z,999.89
2022-12-08T11:09:13.858Z,999.90
2022-12-08T11:10:13.866Z,999.89
2022-12-08T11:11:13.858Z,999.82
2022-12-08T11:12:13.894Z,999.86
2022-12-08T11:13:13.814Z,999.90
2022-12-08T11:14:13.817Z,999.85
2022-12-08T11:15:13.820Z,999.84
2022-12-08T11:16:13.835Z,999.80
2022-12-08T11:17:13.777Z,999.86
2022-12-08T11:18:13.765Z,999.86
2022-12-08T11:19:13.760Z,999.89
2022-12-08T11:20:13.755Z,999.84
2022-12-08T11:21:13.759Z,999.84
2022-12-08T11:22:13.717Z,999.83
2022-12-08T11:23:13.724Z,999.85
2022-12-08T11:24:13.701Z,999.87
2022-12-08T11:25:13.713Z,999.81
2022-12-08T11:26:13.709Z,999.79
2022-12-08T11:27:13.702Z,999.79
2022-12-08T11:28:13.664Z,999.77
2022-12-08T11:29:13.658Z,999.74
2022-12-08T11:30:14.742Z,999.75
2022-12-08T11:31:13.675Z,999.72
2022-12-08T11:32:13.732Z,999.70
2022-12-08T11:33:13.618Z,999.73
2022-12-08T11:34:13.596Z,999.64
2022-12-08T11:35:13.589Z,999.66
2022-12-08T11:36:13.580Z,999.63
2022-12-08T11:37:13.557Z,999.65
2022-12-08T11:38:21.547Z,999.68
2022-12-08T11:39:14.552Z,999.70
2022-12-08T11:40:13.533Z,999.65
2022-12-08T11:41:16.523Z,999.62
2022-12-08T11:42:13.531Z,999.66
2022-12-08T11:43:13.521Z,999.71
2022-12-08T11:44:13.511Z,999.65
2022-12-08T11:45:13.482Z,999.78
2022-12-08T11:46:13.622Z,999.66
2022-12-08T11:47:13.493Z,999.67
2022-12-08T11:48:13.444Z,999.69
2022-12-08T11:49:13.447Z,999.68
2022-12-08T11:50:18.142Z,999.69
2022-12-08T11:51:15.191Z,999.72
2022-12-08T11:52:13.428Z,999.83
2022-12-08T11:53:13.401Z,999.73
2022-12-08T11:54:13.377Z,999.75
2022-12-08T11:55:13.371Z,999.75
2022-12-08T11:56:13.395Z,999.74
2022-12-08T11:57:13.362Z,999.76
2022-12-08T11:58:13.403Z,999.75
2022-12-08T11:59:13.332Z,999.72
2022-12-08T12:00:13.370Z,999.74
2022-12-08T12:01:13.310Z,999.76
2022-12-08T12:02:13.356Z,999.72
2022-12-08T12:03:13.340Z,999.78
2022-12-08T12:04:13.280Z,999.75
2022-12-08T12:05:13.288Z,999.69
2022-12-08T12:06:30.379Z,999.73
2022-12-08T12:07:14.262Z,999.75
2022-12-08T12:08:13.278Z,999.77